Time;durP1;ratioP1;P1;durP2;ratioP2;P2;SDS_P1;SDS_P2;PMS_P1;PMS_P2;Temp;Humidity;BMP_temperature;BMP_pressure;BME280_temperature;BME280_humidity;BME280_pressure;Samples;Min_cycle;Max_cycle;Signal;HPM_P1;HPM_P2
2023/01/04 00:00:04;;;;;;;;;4.00;3.00;;;;;10.81;78.79;102006.47;5063697;28;45342;-76
2023/01/04 00:02:30;;;;;;;;;2.33;2.00;;;;;11.19;78.21;102055.00;5063205;28;45656;-77
2023/01/04 00:04:55;;;;;;;;;2.33;2.33;;;;;11.19;78.69;102070.13;5070096;28;45437;-77
2023/01/04 00:07:21;;;;;;;;;3.00;3.00;;;;;10.68;78.71;101985.25;5080584;27;45324;-76
2023/01/04 00:09:46;;;;;;;;;2.33;1.33;;;;;10.98;78.30;102025.53;5078929;28;45538;-77
2023/01/04 00:12:11;;;;;;;;;4.67;2.00;;;;;10.71;78.40;101982.38;5078648;28;45549;-77
2023/01/04 00:14:37;;;;;;;;;4.00;2.67;;;;;11.09;78.23;102046.00;5072194;27;46446;-75
2023/01/04 00:17:02;;;;;;;;;5.33;2.33;;;;;11.40;78.16;102088.94;5041439;28;45328;-78
2023/01/04 00:19:27;;;;;;;;;6.67;4.00;;;;;10.93;78.23;102026.84;5040986;28;45354;-75
2023/01/04 00:21:53;;;;;;;;;4.00;2.00;;;;;11.11;77.89;102040.56;5040823;28;45309;-77
2023/01/04 00:24:18;;;;;;;;;4.00;2.67;;;;;10.82;78.08;101986.91;5061293;28;45322;-75
2023/01/04 00:26:43;;;;;;;;;3.67;2.67;;;;;11.05;78.00;102039.22;5040599;28;45248;-77
2023/01/04 00:29:11;;;;;;;;;4.00;4.00;;;;;11.39;78.23;102082.75;5040662;28;45309;-78
2023/01/04 00:31:37;;;;;;;;;3.00;3.00;;;;;11.06;78.16;102038.28;5058840;28;45921;-77
2023/01/04 00:34:04;;;;;;;;;3.00;3.00;;;;;11.37;78.13;102079.38;5063181;28;46855;-76
2023/01/04 00:36:30;;;;;;;;;3.33;3.33;;;;;11.38;77.95;102082.88;5060619;28;45675;-78
2023/01/04 00:39:06;;;;;;;;;3.00;1.33;;;;;11.32;77.91;102070.03;5060843;28;45466;-75
2023/01/04 00:41:38;;;;;;;;;5.00;4.00;;;;;11.25;77.83;102041.25;5061519;28;45625;-78
2023/01/04 00:44:05;;;;;;;;;2.00;2.00;;;;;10.49;78.10;101911.34;5079021;28;45588;-74
2023/01/04 00:46:31;;;;;;;;;4.00;4.00;;;;;11.08;78.01;102015.03;5080164;28;45321;-76
2023/01/04 00:48:57;;;;;;;;;2.33;2.33;;;;;11.05;78.43;101998.47;5079233;28;45300;-76
2023/01/04 00:51:22;;;;;;;;;2.00;2.00;;;;;10.76;78.30;101956.25;5077134;28;45479;-76
2023/01/04 00:53:47;;;;;;;;;4.00;3.00;;;;;11.50;78.46;102079.31;5077370;28;47603;-76
2023/01/04 00:56:13;;;;;;;;;4.00;4.00;;;;;11.38;78.43;102069.56;5058612;28;47720;-74
2023/01/04 00:58:38;;;;;;;;;2.00;2.00;;;;;11.33;78.23;102050.44;5058342;28;45417;-77
2023/01/04 01:01:06;;;;;;;;;3.33;3.33;;;;;11.32;77.89;102052.25;5057708;28;49546;-76
2023/01/04 01:03:32;;;;;;;;;3.33;3.00;;;;;11.03;78.32;102011.91;5039501;28;46983;-75
2023/01/04 01:06:01;;;;;;;;;6.00;3.00;;;;;11.09;78.73;102008.75;5057959;28;45495;-75
2023/01/04 01:08:27;;;;;;;;;4.33;3.67;;;;;11.38;78.60;102072.22;5040093;28;45517;-77
2023/01/04 01:10:54;;;;;;;;;3.33;3.00;;;;;11.34;78.66;102058.31;5040023;28;45599;-78
2023/01/04 01:13:21;;;;;;;;;3.00;3.00;;;;;11.45;78.42;102081.47;5057643;28;46815;-77
2023/01/04 01:15:46;;;;;;;;;2.33;2.33;;;;;11.04;78.64;101997.63;5071838;27;45564;-75
2023/01/04 01:18:12;;;;;;;;;6.67;6.67;;;;;11.34;78.58;102036.16;5098374;27;45423;-76
2023/01/04 01:20:44;;;;;;;;;2.00;2.00;;;;;11.48;78.38;102044.78;5098916;27;45324;-76
2023/01/04 01:23:14;;;;;;;;;4.00;3.00;;;;;11.49;78.96;102057.16;5098526;27;45729;-75
2023/01/04 01:25:41;;;;;;;;;2.00;2.00;;;;;11.37;78.79;102025.28;5087763;27;45348;-75
2023/01/04 01:28:07;;;;;;;;;5.00;3.67;;;;;11.11;78.85;101998.84;5079158;28;45371;-76
2023/01/04 01:30:33;;;;;;;;;3.67;3.00;;;;;11.46;78.72;102040.56;5078069;27;45477;-77
2023/01/04 01:32:59;;;;;;;;;4.33;2.00;;;;;11.24;78.79;102014.72;5077576;28;46607;-77
2023/01/04 01:35:24;;;;;;;;;4.00;4.00;;;;;11.53;78.66;102053.28;5076374;27;45312;-76
2023/01/04 01:37:49;;;;;;;;;4.00;3.00;;;;;11.39;78.46;102040.16;5078921;27;45307;-76
2023/01/04 01:40:15;;;;;;;;;3.00;3.00;;;;;10.60;78.36;101914.00;5078031;27;45267;-75
2023/01/04 01:42:40;;;;;;;;;3.00;3.00;;;;;11.57;78.38;102065.38;5077441;27;46356;-78
2023/01/04 01:45:28;;;;;;;;;4.00;4.00;;;;;11.54;78.64;102062.09;5076357;27;45602;-77
2023/01/04 01:48:11;;;;;;;;;7.00;3.00;;;;;11.23;78.88;102003.25;5076332;28;45347;-75
2023/01/04 01:51:00;;;;;;;;;7.00;4.00;;;;;11.46;78.72;102053.88;5076501;28;45455;-77
2023/01/04 01:53:29;;;;;;;;;7.00;5.00;;;;;11.50;78.89;102047.34;5077428;27;45849;-74
2023/01/04 01:55:56;;;;;;;;;7.00;4.00;;;;;11.36;78.40;102020.91;5077315;27;45497;-75
2023/01/04 01:58:33;;;;;;;;;2.00;2.00;;;;;11.49;78.75;102045.66;5077905;27;45220;-77
2023/01/04 02:01:02;;;;;;;;;4.67;3.33;;;;;10.93;78.43;101958.50;5077850;27;45565;-76
2023/01/04 02:03:32;;;;;;;;;4.00;4.00;;;;;11.57;78.52;102048.56;5077456;27;46460;-76
2023/01/04 02:06:01;;;;;;;;;3.00;3.00;;;;;11.01;78.37;101965.03;5077038;27;45414;-75
2023/01/04 02:08:27;;;;;;;;;2.67;1.67;;;;;11.36;78.64;102010.25;5077272;27;45350;-75
2023/01/04 02:10:52;;;;;;;;;3.00;3.00;;;;;11.22;78.41;101977.59;5075904;28;45494;-75
2023/01/04 02:13:23;;;;;;;;;8.33;5.00;;;;;10.90;78.15;101933.94;5094172;27;60524;-76
2023/01/04 02:16:17;;;;;;;;;3.33;3.33;;;;;11.34;78.73;101988.25;5085176;27;45167;-75
2023/01/04 02:18:56;;;;;;;;;4.67;4.67;;;;;11.54;78.12;102039.00;5080989;28;45391;-74
2023/01/04 02:21:35;;;;;;;;;3.67;3.67;;;;;11.37;78.30;102003.97;5066074;28;45584;-75
2023/01/04 02:24:39;;;;;;;;;5.33;4.00;;;;;11.57;78.52;102032.56;5053664;28;45786;-74
2023/01/04 02:27:04;;;;;;;;;7.67;2.67;;;;;11.54;78.33;102036.31;5058600;28;45491;-75
2023/01/04 02:29:55;;;;;;;;;2.00;2.00;;;;;11.51;78.84;102039.22;5042732;28;45543;-76
2023/01/04 02:32:32;;;;;;;;;4.00;4.00;;;;;11.53;78.91;102047.09;5060639;28;45242;-76
2023/01/04 02:34:57;;;;;;;;;3.00;3.00;;;;;11.53;78.42;102052.44;5060245;28;46073;-76
2023/01/04 02:37:31;;;;;;;;;3.67;3.67;;;;;11.53;78.25;102044.44;5064824;28;45785;-76
2023/01/04 02:40:22;;;;;;;;;2.00;1.00;;;;;11.53;78.68;102047.94;5066723;28;45417;-76
2023/01/04 02:46:13;;;;;;;;;4.67;3.00;;;;;11.59;77.75;102035.97;4978130;28;45963;-74
2023/01/04 02:51:32;;;;;;;;;4.00;4.00;;;;;11.68;78.21;102051.25;5056536;28;45266;-76
2023/01/04 02:54:03;;;;;;;;;3.33;3.00;;;;;11.72;77.23;102059.84;5080512;28;45246;-76
2023/01/04 02:56:40;;;;;;;;;6.33;4.33;;;;;11.64;78.22;102033.81;5078925;28;45464;-76
2023/01/04 02:59:14;;;;;;;;;6.00;6.00;;;;;11.67;78.31;102057.53;5079882;28;45218;-75
2023/01/04 03:07:58;;;;;;;;;2.00;2.00;;;;;11.44;78.15;102005.22;5079556;28;45615;-75
2023/01/04 03:10:35;;;;;;;;;5.00;3.67;;;;;11.67;78.29;102049.56;5078362;28;46516;-75
2023/01/04 03:13:11;;;;;;;;;3.33;2.00;;;;;11.64;77.91;102039.13;5079989;28;45505;-75
2023/01/04 03:15:40;;;;;;;;;2.00;2.00;;;;;11.33;78.17;101984.72;5050813;28;45319;-76
2023/01/04 03:18:19;;;;;;;;;4.00;3.00;;;;;11.60;78.74;102040.31;5062587;28;46793;-76
2023/01/04 03:20:47;;;;;;;;;4.00;2.67;;;;;11.64;78.61;102048.94;5060549;28;45258;-74
2023/01/04 03:37:31;;;;;;;;;4.00;4.00;;;;;11.47;78.63;101992.50;5059759;28;45553;-76
2023/01/04 03:49:48;;;;;;;;;4.00;3.00;;;;;11.52;79.24;101987.66;5059594;28;45325;-76
2023/01/04 03:52:16;;;;;;;;;2.33;2.00;;;;;11.58;79.11;101986.31;5040630;28;48217;-76
2023/01/04 03:54:46;;;;;;;;;4.00;2.33;;;;;11.57;79.10;101979.31;5041716;28;46769;-76
2023/01/04 03:57:12;;;;;;;;;3.00;2.00;;;;;11.43;79.46;101956.44;5079824;28;45545;-76
2023/01/04 03:59:42;;;;;;;;;2.33;1.33;;;;;11.46;79.68;101955.34;5079755;28;45189;-77
2023/01/04 04:02:22;;;;;;;;;3.00;3.00;;;;;11.57;79.89;101973.97;5080109;28;45379;-75
2023/01/04 04:10:15;;;;;;;;;2.00;2.00;;;;;10.73;79.42;101828.84;5079492;28;45270;-74
2023/01/04 04:12:40;;;;;;;;;3.67;2.00;;;;;11.40;79.69;101926.50;5077885;28;47480;-74
2023/01/04 04:15:06;;;;;;;;;2.67;2.67;;;;;11.53;79.94;101956.53;5088864;27;45485;-76
2023/01/04 04:17:31;;;;;;;;;3.00;3.00;;;;;11.55;80.18;101954.59;5099648;27;45238;-75
2023/01/04 04:20:00;;;;;;;;;4.00;2.67;;;;;11.57;79.88;101973.97;5099944;27;45211;-76
2023/01/04 04:22:25;;;;;;;;;3.67;2.00;;;;;11.15;79.52;101892.97;5099698;27;46242;-76
2023/01/04 04:24:51;;;;;;;;;2.00;2.00;;;;;10.84;79.95;101841.31;5099683;27;45327;-75
2023/01/04 04:27:16;;;;;;;;;3.33;2.00;;;;;11.49;80.70;101949.78;5098953;27;45310;-74
2023/01/04 04:29:41;;;;;;;;;2.67;2.67;;;;;11.61;80.70;101955.94;5099869;27;45328;-76
2023/01/04 04:32:07;;;;;;;;;4.00;3.00;;;;;11.57;80.31;101964.16;5098264;27;45662;-76
2023/01/04 04:34:32;;;;;;;;;2.33;2.00;;;;;11.61;80.68;101972.75;5099417;27;45473;-77
2023/01/04 04:36:57;;;;;;;;;2.33;2.33;;;;;11.54;80.42;101960.91;5099758;27;45345;-75
2023/01/04 04:39:22;;;;;;;;;4.67;3.67;;;;;11.43;80.98;101956.44;5080389;27;45486;-75
2023/01/04 04:41:48;;;;;;;;;1.67;1.67;;;;;11.57;81.05;101971.31;5097616;27;46221;-75
2023/01/04 04:44:16;;;;;;;;;2.67;2.67;;;;;11.57;80.57;101958.00;5098643;27;45544;-77
2023/01/04 04:46:42;;;;;;;;;3.33;3.33;;;;;11.34;80.62;101924.34;5099567;27;45528;-76
2023/01/04 04:49:08;;;;;;;;;3.00;3.00;;;;;11.57;81.12;101974.81;5099302;27;45532;-76
2023/01/04 04:51:34;;;;;;;;;3.00;3.00;;;;;10.87;80.96;101833.09;5101380;27;45753;-76
2023/01/04 04:53:59;;;;;;;;;5.67;4.33;;;;;11.18;81.44;101898.91;5082898;27;45404;-75
2023/01/04 04:56:25;;;;;;;;;2.67;2.00;;;;;11.55;81.04;101966.09;5061826;28;45943;-75
2023/01/04 04:58:50;;;;;;;;;3.33;3.33;;;;;11.45;80.59;101943.00;5079022;28;45289;-76
2023/01/04 05:01:16;;;;;;;;;2.00;2.00;;;;;11.64;80.79;101969.88;5060904;28;48274;-74
2023/01/04 05:03:42;;;;;;;;;3.00;3.00;;;;;11.61;80.80;101954.13;5091180;27;45463;-76
2023/01/04 05:06:07;;;;;;;;;7.33;4.00;;;;;11.50;80.59;101946.13;5097750;27;45263;-76
2023/01/04 05:08:33;;;;;;;;;4.00;2.33;;;;;11.68;80.92;101955.34;5098852;27;45530;-76
2023/01/04 05:10:58;;;;;;;;;4.67;4.67;;;;;11.14;80.81;101865.53;5069542;28;48039;-75
2023/01/04 05:13:24;;;;;;;;;2.33;2.33;;;;;11.64;80.68;101927.25;5078067;28;45479;-75
2023/01/04 05:15:51;;;;;;;;;3.00;3.00;;;;;11.66;81.01;101941.31;5065347;28;45311;-74
2023/01/04 05:18:19;;;;;;;;;5.00;4.33;;;;;10.72;80.55;101778.41;5058670;28;45200;-78
2023/01/04 05:20:44;;;;;;;;;3.00;2.00;;;;;11.53;80.62;101901.47;5074255;28;46638;-76
2023/01/04 05:23:12;;;;;;;;;2.00;1.33;;;;;11.33;81.13;101880.03;5077897;28;45502;-78
2023/01/04 05:25:38;;;;;;;;;4.33;3.00;;;;;11.22;81.15;101855.13;5077862;28;45331;-77
2023/01/04 05:28:05;;;;;;;;;4.33;4.00;;;;;11.64;80.73;101948.56;5076787;28;45350;-77
2023/01/04 05:30:49;;;;;;;;;3.00;3.00;;;;;11.52;80.88;101925.56;5076158;28;48916;-77
2023/01/04 05:33:16;;;;;;;;;13.00;8.00;;;;;10.82;80.95;101800.69;5077501;28;45486;-76
2023/01/04 05:35:41;;;;;;;;;4.00;4.00;;;;;11.66;81.36;101941.31;5077718;28;45474;-77
2023/01/04 05:38:06;;;;;;;;;3.00;3.00;;;;;11.68;80.91;101938.50;5076135;28;47113;-74
2023/01/04 05:40:32;;;;;;;;;3.00;3.00;;;;;11.75;81.61;101959.22;5058978;28;46843;-74
2023/01/04 05:42:57;;;;;;;;;4.00;2.67;;;;;11.70;81.30;101953.41;5079138;28;45525;-75
2023/01/04 05:45:22;;;;;;;;;3.00;3.00;;;;;11.28;81.90;101883.94;5078531;28;45190;-74
2023/01/04 05:47:49;;;;;;;;;3.00;3.00;;;;;11.44;82.60;101909.34;5077956;28;45372;-75
2023/01/04 05:50:15;;;;;;;;;5.00;3.00;;;;;11.30;82.80;101883.81;5074666;28;46946;-76
2023/01/04 05:52:41;;;;;;;;;3.00;3.00;;;;;11.58;82.70;101943.72;5059214;28;45343;-76
2023/01/04 05:55:06;;;;;;;;;5.00;2.67;;;;;11.68;83.21;101962.50;5077386;28;45328;-75
2023/01/04 05:57:32;;;;;;;;;2.00;2.00;;;;;11.41;83.35;101906.91;5077783;28;45251;-76
2023/01/04 05:59:57;;;;;;;;;3.00;1.67;;;;;11.70;82.99;101961.41;5057766;28;47525;-77
2023/01/04 06:02:26;;;;;;;;;2.00;2.00;;;;;11.74;83.02;101965.50;5058904;28;45564;-75
2023/01/04 06:04:51;;;;;;;;;2.67;2.67;;;;;11.47;83.54;101917.09;5077127;28;45359;-76
2023/01/04 06:07:17;;;;;;;;;2.00;2.00;;;;;11.39;83.47;101912.34;5077847;28;45265;-74
2023/01/04 06:09:43;;;;;;;;;3.00;2.00;;;;;11.64;84.08;101959.22;5057885;28;47748;-74
2023/01/04 06:12:09;;;;;;;;;2.67;2.67;;;;;11.35;83.50;101915.38;5077131;28;45165;-76
2023/01/04 06:14:35;;;;;;;;;3.33;2.00;;;;;11.65;83.52;101965.41;5076707;27;45318;-76
2023/01/04 06:17:00;;;;;;;;;2.67;2.00;;;;;11.51;83.66;101940.69;5076010;28;45586;-75
2023/01/04 06:19:26;;;;;;;;;3.00;2.67;;;;;11.36;83.27;101911.75;5057143;28;48659;-79
2023/01/04 06:21:52;;;;;;;;;3.67;3.00;;;;;11.53;83.30;101949.41;5058394;28;45848;-77
2023/01/04 06:24:17;;;;;;;;;3.00;3.00;;;;;11.54;83.21;101934.28;5059220;28;45359;-76
2023/01/04 06:26:43;;;;;;;;;1.67;1.67;;;;;11.61;83.35;101946.13;5075903;28;45518;-76
2023/01/04 06:29:08;;;;;;;;;2.00;2.00;;;;;11.63;83.05;101954.03;5056198;28;48058;-75
2023/01/04 06:31:34;;;;;;;;;0.00;0.00;;;;;11.79;83.32;101981.16;5058822;28;45452;-77
2023/01/04 06:33:59;;;;;;;;;2.00;2.00;;;;;11.51;83.01;101914.06;5078588;28;45394;-75
2023/01/04 06:36:25;;;;;;;;;1.33;1.33;;;;;11.58;83.01;101925.06;5065492;28;45404;-76
2023/01/04 06:38:51;;;;;;;;;2.00;2.00;;;;;11.76;83.74;101974.22;5066496;28;47030;-75
2023/01/04 06:41:16;;;;;;;;;1.00;1.00;;;;;11.51;84.13;101921.19;5055177;28;45482;-77
2023/01/04 06:43:41;;;;;;;;;2.00;1.00;;;;;11.47;84.32;101911.78;5067067;28;45533;-76
2023/01/04 06:46:07;;;;;;;;;1.00;1.00;;;;;11.62;84.13;101955.84;5056788;28;45609;-75
2023/01/04 06:48:32;;;;;;;;;3.00;3.00;;;;;11.67;84.77;101964.31;5038270;28;47296;-76
2023/01/04 06:50:58;;;;;;;;;1.33;1.33;;;;;11.40;85.13;101913.19;5038464;28;45335;-75
2023/01/04 06:53:23;;;;;;;;;1.00;1.00;;;;;11.75;85.24;101977.00;5056991;28;45454;-74
2023/01/04 06:55:49;;;;;;;;;3.00;3.00;;;;;11.70;85.39;101971.19;5061342;28;46565;-80
2023/01/04 06:58:14;;;;;;;;;1.67;1.67;;;;;11.39;85.32;101932.81;5075199;28;47673;-77
2023/01/04 07:00:40;;;;;;;;;3.33;3.00;;;;;11.62;84.54;101953.19;5076957;28;45513;-75
2023/01/04 07:03:05;;;;;;;;;1.67;1.67;;;;;11.67;84.69;101958.97;5078686;28;45493;-78
2023/01/04 07:05:30;;;;;;;;;1.33;1.33;;;;;11.69;84.75;101945.53;5060420;28;45742;-75
2023/01/04 07:08:00;;;;;;;;;1.00;1.00;;;;;11.54;84.32;101936.94;5060258;28;45776;-76
2023/01/04 07:10:25;;;;;;;;;1.00;1.00;;;;;11.45;84.20;101895.06;5060298;28;45324;-77
2023/01/04 07:12:51;;;;;;;;;1.00;1.00;;;;;11.54;83.78;101932.44;5042683;28;45286;-78
2023/01/04 07:15:16;;;;;;;;;2.00;2.00;;;;;11.84;83.69;101960.34;5065193;28;45450;-79
2023/01/04 07:17:41;;;;;;;;;2.00;2.00;;;;;11.51;83.46;101906.06;5041859;28;47192;-75
2023/01/04 07:20:07;;;;;;;;;1.33;1.33;;;;;11.93;83.35;101975.56;5060109;28;60793;-77
2023/01/04 07:22:33;;;;;;;;;3.00;1.00;;;;;11.91;83.34;101960.69;5048348;28;45314;-76
2023/01/04 07:24:58;;;;;;;;;1.00;1.00;;;;;11.45;83.13;101889.75;5068333;28;45513;-77
2023/01/04 07:27:23;;;;;;;;;2.00;2.00;;;;;11.65;84.22;101912.97;5081706;28;46214;-79
2023/01/04 07:29:49;;;;;;;;;2.00;2.00;;;;;11.04;83.28;101810.50;5049228;28;45195;-76
2023/01/04 07:32:14;;;;;;;;;2.00;2.00;;;;;11.82;83.57;101941.81;5062762;28;45224;-79
2023/01/04 07:34:40;;;;;;;;;1.67;1.67;;;;;11.88;83.29;101941.31;5059946;28;45435;-76
2023/01/04 07:37:08;;;;;;;;;2.33;2.33;;;;;11.77;83.09;101909.31;5059370;28;46299;-78
2023/01/04 07:39:34;;;;;;;;;1.67;1.67;;;;;12.07;83.17;101966.50;5041182;28;45870;-76
2023/01/04 07:41:59;;;;;;;;;2.00;2.00;;;;;11.83;82.79;101927.53;5073678;28;45577;-76
2023/01/04 07:44:27;;;;;;;;;1.67;1.00;;;;;12.03;82.51;101959.72;5077937;28;45175;-78
2023/01/04 07:46:53;;;;;;;;;1.00;1.00;;;;;11.97;82.34;101960.19;5071276;28;45785;-74
2023/01/04 07:49:19;;;;;;;;;2.00;2.00;;;;;12.04;82.53;101972.06;5059817;28;45383;-77
2023/01/04 07:51:46;;;;;;;;;1.00;1.00;;;;;12.12;82.56;101980.28;5058924;28;45455;-78
2023/01/04 07:54:12;;;;;;;;;4.67;3.67;;;;;12.12;82.42;101970.47;5059011;28;45463;-78
2023/01/04 07:56:38;;;;;;;;;1.33;1.33;;;;;11.71;82.16;101912.47;5040595;28;47453;-76
2023/01/04 07:59:08;;;;;;;;;1.33;1.33;;;;;12.14;82.59;101965.84;5058738;28;45490;-78
2023/01/04 08:01:36;;;;;;;;;1.00;1.00;;;;;12.16;82.69;101973.72;5059100;28;45338;-75
2023/01/04 08:04:02;;;;;;;;;3.67;2.00;;;;;12.11;82.43;101974.09;5066846;28;45582;-77
2023/01/04 08:06:27;;;;;;;;;1.00;1.00;;;;;12.20;82.88;101985.81;5053187;28;47823;-76
2023/01/04 08:08:52;;;;;;;;;0.67;0.67;;;;;12.10;82.84;101958.22;5073712;28;45450;-75
2023/01/04 08:11:21;;;;;;;;;5.33;4.00;;;;;11.82;82.13;101904.50;5078752;28;45365;-76
2023/01/04 08:13:47;;;;;;;;;2.33;2.33;;;;;12.31;82.57;101980.47;5064227;28;45391;-75
2023/01/04 08:16:24;;;;;;;;;1.00;1.00;;;;;12.10;82.86;101961.75;5058439;28;45444;-76
2023/01/04 08:18:54;;;;;;;;;4.00;3.00;;;;;12.18;82.76;101955.78;5065305;28;45482;-75
2023/01/04 08:21:20;;;;;;;;;2.00;2.00;;;;;12.26;83.32;101966.69;5047753;28;45506;-77
2023/01/04 08:23:46;;;;;;;;;4.00;4.00;;;;;11.99;83.16;101910.28;5060848;28;45356;-78
2023/01/04 08:26:14;;;;;;;;;3.00;3.00;;;;;11.88;82.75;101912.00;5061032;28;47477;-78
2023/01/04 08:28:40;;;;;;;;;2.67;2.67;;;;;11.53;83.00;101839.38;5079342;28;45640;-78
2023/01/04 08:31:09;;;;;;;;;3.00;2.67;;;;;12.14;83.09;101920.53;5078244;28;45398;-79
2023/01/04 08:33:36;;;;;;;;;5.00;4.00;;;;;12.34;82.73;101972.22;5061250;28;45435;-77
2023/01/04 08:36:10;;;;;;;;;6.00;3.00;;;;;12.35;82.93;101960.59;5077569;28;45351;-76
2023/01/04 08:38:35;;;;;;;;;5.67;3.00;;;;;12.08;83.01;101912.19;5073350;27;46056;-76
2023/01/04 08:41:01;;;;;;;;;5.00;3.67;;;;;12.19;83.07;101933.47;5061031;28;45431;-75
2023/01/04 08:43:26;;;;;;;;;5.33;3.00;;;;;12.41;82.96;101976.09;5055774;28;45286;-76
2023/01/04 08:45:52;;;;;;;;;3.67;3.33;;;;;11.37;83.10;101791.81;5076340;28;46412;-76
2023/01/04 08:48:17;;;;;;;;;5.00;3.00;;;;;12.02;83.06;101910.88;5055804;28;45832;-77
2023/01/04 08:50:42;;;;;;;;;2.00;2.00;;;;;12.45;82.77;101987.38;5043475;28;45376;-77
2023/01/04 08:53:08;;;;;;;;;6.00;4.00;;;;;12.42;82.85;101979.63;5043552;28;45404;-77
2023/01/04 08:55:33;;;;;;;;;2.00;2.00;;;;;12.27;83.30;101949.72;5058293;28;45864;-76
2023/01/04 08:57:59;;;;;;;;;3.00;3.00;;;;;9.83;82.51;101555.91;5046704;28;45552;-79
2023/01/04 09:00:25;;;;;;;;;2.67;2.67;;;;;12.46;82.68;101979.25;5076381;28;45466;-78
2023/01/04 09:02:51;;;;;;;;;1.67;1.67;;;;;11.80;82.68;101871.78;5047248;28;45688;-76
2023/01/04 09:05:16;;;;;;;;;2.33;2.33;;;;;12.16;82.96;101931.06;5058681;28;45737;-76
2023/01/04 09:07:42;;;;;;;;;3.00;2.00;;;;;12.52;83.08;102001.03;5057859;28;45321;-76
2023/01/04 09:10:08;;;;;;;;;4.00;3.00;;;;;11.57;83.58;101838.13;5058947;28;45685;-77
2023/01/04 09:12:33;;;;;;;;;3.33;3.33;;;;;12.13;83.80;101934.84;5058727;28;45683;-76
2023/01/04 09:14:58;;;;;;;;;3.00;2.00;;;;;12.35;83.91;101968.59;5057627;28;45404;-77
2023/01/04 09:17:24;;;;;;;;;2.00;2.00;;;;;12.37;84.38;101955.97;5057824;28;45252;-78
2023/01/04 09:19:49;;;;;;;;;2.00;2.00;;;;;12.05;84.06;101901.78;5058804;28;45446;-77
2023/01/04 09:22:15;;;;;;;;;1.33;1.33;;;;;12.05;83.99;101918.63;5058862;28;45308;-78
2023/01/04 09:24:40;;;;;;;;;2.00;2.00;;;;;12.49;84.13;101976.31;5041980;28;48443;-76
2023/01/04 09:27:05;;;;;;;;;2.00;2.00;;;;;12.04;83.92;101900.94;5058241;28;45167;-77
2023/01/04 09:29:31;;;;;;;;;4.00;3.00;;;;;12.07;84.37;101907.84;5058214;28;45739;-79
2023/01/04 09:31:56;;;;;;;;;2.67;2.67;;;;;12.20;83.78;101916.50;5053820;28;45537;-77
2023/01/04 09:34:21;;;;;;;;;2.33;2.33;;;;;12.39;83.84;101934.50;5076643;27;46198;-77
2023/01/04 09:36:47;;;;;;;;;4.00;3.00;;;;;12.21;83.57;101901.34;5042829;28;45348;-77
2023/01/04 09:39:14;;;;;;;;;3.67;3.00;;;;;12.43;83.58;101952.81;5064201;28;45549;-77
2023/01/04 09:42:18;;;;;;;;;3.00;3.00;;;;;12.54;83.73;101957.25;5084096;28;45542;-76
2023/01/04 09:45:06;;;;;;;;;3.67;2.67;;;;;12.26;83.39;101907.19;5037376;28;46498;-76
2023/01/04 09:47:50;;;;;;;;;3.00;3.00;;;;;12.63;83.41;101943.16;5057930;28;45444;-75
2023/01/04 09:50:40;;;;;;;;;5.00;2.67;;;;;12.67;83.09;101954.44;5058214;28;45304;-78
2023/01/04 09:53:18;;;;;;;;;4.00;3.00;;;;;12.26;82.63;101881.38;5059400;28;45479;-77
2023/01/04 09:55:48;;;;;;;;;2.00;2.00;;;;;12.70;82.35;101960.34;5074071;28;47879;-77
2023/01/04 09:58:34;;;;;;;;;4.00;3.00;;;;;12.69;82.60;101960.47;5052080;28;45505;-77
2023/01/04 10:01:04;;;;;;;;;3.00;3.00;;;;;12.74;82.46;101975.13;5077854;28;45577;-77
2023/01/04 10:03:33;;;;;;;;;3.00;1.33;;;;;12.67;82.93;101983.78;5058830;28;45462;-78
2023/01/04 10:06:00;;;;;;;;;4.00;2.00;;;;;12.65;82.55;101988.41;5057571;28;46935;-78
2023/01/04 10:08:26;;;;;;;;;2.00;2.00;;;;;11.88;82.09;101849.88;5059319;28;45249;-75
2023/01/04 10:11:27;;;;;;;;;3.00;3.00;;;;;12.70;82.54;101991.53;5061075;28;45372;-78
2023/01/04 10:14:17;;;;;;;;;2.00;2.00;;;;;12.76;82.08;101975.00;5064494;28;45469;-75
2023/01/04 10:17:01;;;;;;;;;1.67;1.67;;;;;12.79;81.50;101978.25;5093463;27;47134;-76
2023/01/04 10:19:39;;;;;;;;;1.67;1.67;;;;;12.82;81.73;101982.50;5087594;27;45470;-79
2023/01/04 10:22:35;;;;;;;;;2.00;2.00;;;;;12.79;81.86;101990.75;5097846;27;45389;-78
2023/01/04 10:25:23;;;;;;;;;3.00;3.00;;;;;12.79;81.44;101982.72;5104697;27;45425;-77
2023/01/04 10:28:22;;;;;;;;;3.33;1.33;;;;;12.46;81.38;101904.56;5099005;27;47659;-78
2023/01/04 10:31:11;;;;;;;;;4.00;2.00;;;;;12.81;81.53;101967.44;5085109;27;45562;-77
2023/01/04 10:33:47;;;;;;;;;3.00;2.67;;;;;12.37;81.25;101899.97;5113887;27;45366;-78
2023/01/04 10:36:18;;;;;;;;;2.00;2.00;;;;;12.79;81.58;101959.56;5078222;27;45513;-80
2023/01/04 10:38:43;;;;;;;;;16.33;16.00;;;;;12.57;81.24;101908.13;5086433;27;45409;-80
2023/01/04 10:41:15;;;;;;;;;2.33;2.33;;;;;12.90;81.64;101965.84;5081147;27;45190;-80
2023/01/04 10:43:50;;;;;;;;;1.00;1.00;;;;;12.19;81.29;101848.16;5089382;27;45482;-77
2023/01/04 10:46:48;;;;;;;;;2.67;2.67;;;;;12.97;80.91;101962.50;5099057;27;45317;-79
2023/01/04 10:49:35;;;;;;;;;3.00;3.00;;;;;12.85;81.24;101936.88;5088491;27;46116;-77
2023/01/04 10:52:11;;;;;;;;;3.00;3.00;;;;;12.73;80.97;101927.22;5088061;27;45509;-77
2023/01/04 10:54:48;;;;;;;;;4.33;3.33;;;;;13.04;81.06;101963.69;5088015;27;45297;-77
2023/01/04 10:57:25;;;;;;;;;4.00;4.00;;;;;13.04;80.92;101968.19;5081807;27;45513;-80
2023/01/04 11:00:09;;;;;;;;;2.33;2.33;;;;;12.86;81.47;101941.22;5093057;27;45639;-78
2023/01/04 11:02:52;;;;;;;;;4.67;3.67;;;;;12.45;81.41;101867.34;5080365;27;45435;-77
2023/01/04 11:05:23;;;;;;;;;3.00;3.00;;;;;12.88;81.38;101923.25;5091206;27;45442;-76
2023/01/04 11:07:52;;;;;;;;;3.67;2.33;;;;;13.12;81.37;101980.88;5092711;27;45475;-75
2023/01/04 11:10:21;;;;;;;;;4.00;4.00;;;;;12.39;81.29;101843.84;5086199;27;45621;-76
2023/01/04 11:12:47;;;;;;;;;4.67;2.67;;;;;12.76;81.47;101906.44;5099450;27;45338;-77
2023/01/04 11:15:12;;;;;;;;;3.33;3.33;;;;;13.04;81.66;101953.03;5081469;27;45252;-76
2023/01/04 11:17:41;;;;;;;;;4.00;2.67;;;;;12.94;81.38;101940.56;5060170;28;45441;-76
2023/01/04 11:20:07;;;;;;;;;3.00;1.00;;;;;12.76;81.62;101910.94;5047181;28;48014;-77
2023/01/04 11:22:52;;;;;;;;;3.00;3.00;;;;;13.15;81.51;101953.91;5041424;28;46525;-79
2023/01/04 11:25:20;;;;;;;;;3.00;3.00;;;;;12.74;81.01;101892.41;5051376;28;45453;-79
2023/01/04 11:27:50;;;;;;;;;4.00;3.00;;;;;12.99;81.47;101923.19;5066005;28;45535;-78
2023/01/04 11:30:20;;;;;;;;;2.00;2.00;;;;;12.84;81.80;101896.97;5059993;28;45625;-81
2023/01/04 11:32:59;;;;;;;;;5.00;4.00;;;;;13.01;82.23;101929.25;5073420;28;45312;-77
2023/01/04 11:35:55;;;;;;;;;1.00;1.00;;;;;12.98;82.67;101926.81;5049583;28;45636;-79
2023/01/04 11:38:23;;;;;;;;;3.00;3.00;;;;;12.98;83.85;101913.47;5060064;28;45599;-78
2023/01/04 11:41:04;;;;;;;;;3.33;2.00;;;;;13.04;83.56;101931.66;5047980;28;48279;-76
2023/01/04 11:43:32;;;;;;;;;1.00;1.00;;;;;12.88;83.85;101909.06;5052612;28;45218;-77
2023/01/04 11:45:59;;;;;;;;;3.67;2.33;;;;;13.01;84.07;101936.38;5046415;28;45410;-76
2023/01/04 11:48:36;;;;;;;;;1.33;1.33;;;;;13.07;84.19;101931.41;5046957;28;45585;-80
2023/01/04 11:51:02;;;;;;;;;3.33;3.33;;;;;13.01;84.13;101931.94;5046290;28;47487;-79
2023/01/04 11:53:29;;;;;;;;;2.00;2.00;;;;;13.13;83.76;101923.81;5059734;28;45356;-79
2023/01/04 11:56:08;;;;;;;;;2.00;0.33;;;;;12.47;83.58;101820.91;5055668;28;45480;-80
2023/01/04 11:58:33;;;;;;;;;2.00;1.00;;;;;12.99;83.62;101907.16;5079079;28;45523;-77
2023/01/04 12:00:59;;;;;;;;;5.33;3.33;;;;;12.36;83.67;101804.09;5058611;28;47118;-78
2023/01/04 12:03:29;;;;;;;;;2.00;2.00;;;;;13.13;83.72;101905.13;5072364;28;45415;-78
2023/01/04 12:05:56;;;;;;;;;1.67;1.67;;;;;13.05;84.15;101905.81;5062031;28;45351;-77
2023/01/04 12:08:33;;;;;;;;;3.00;3.00;;;;;13.06;83.99;101903.00;5064174;28;45474;-79
2023/01/04 12:11:01;;;;;;;;;4.00;3.00;;;;;13.10;83.98;101901.75;5073472;28;45527;-79
2023/01/04 12:13:27;;;;;;;;;2.00;1.00;;;;;12.40;83.99;101787.69;5069120;28;45748;-77
2023/01/04 12:16:05;;;;;;;;;2.00;1.00;;;;;13.12;84.10;101900.78;5073698;27;45362;-80